createdAt,value
2024-03-26T00:00:37.122Z,991.04
2024-03-26T00:01:39.336Z,991.01
2024-03-26T00:02:37.090Z,990.99
2024-03-26T00:03:37.076Z,990.96
2024-03-26T00:04:37.087Z,990.97
2024-03-26T00:05:37.081Z,990.97
2024-03-26T00:06:37.039Z,990.95
2024-03-26T00:07:37.059Z,990.94
2024-03-26T00:08:37.033Z,990.94
2024-03-26T00:09:37.015Z,990.91
2024-03-26T00:10:37.001Z,990.88
2024-03-26T00:11:37.002Z,990.85
2024-03-26T00:12:36.989Z,990.83
2024-03-26T00:13:36.991Z,990.81
2024-03-26T00:14:37.003Z,990.80
2024-03-26T00:15:36.950Z,990.78
2024-03-26T00:16:36.942Z,990.79
2024-03-26T00:17:36.942Z,990.80
2024-03-26T00:18:36.994Z,990.79
2024-03-26T00:19:36.920Z,990.77
2024-03-26T00:20:36.966Z,990.76
2024-03-26T00:21:36.892Z,990.74
2024-03-26T00:22:36.897Z,990.72
2024-03-26T00:23:36.870Z,990.72
2024-03-26T00:24:36.892Z,990.71
2024-03-26T00:25:36.932Z,990.69
2024-03-26T00:26:36.851Z,990.69
2024-03-26T00:27:36.841Z,990.69
2024-03-26T00:28:36.860Z,990.71
2024-03-26T00:29:36.843Z,990.70
2024-03-26T00:30:36.823Z,990.71
2024-03-26T00:31:36.801Z,990.72
2024-03-26T00:32:36.799Z,990.71
2024-03-26T00:33:36.786Z,990.71
2024-03-26T00:34:36.822Z,990.70
2024-03-26T00:35:36.767Z,990.70
2024-03-26T00:36:36.777Z,990.69
2024-03-26T00:37:36.781Z,990.67
2024-03-26T00:38:36.743Z,990.65
2024-03-26T00:39:36.830Z,990.62
2024-03-26T00:40:36.777Z,990.62
2024-03-26T00:41:36.716Z,990.64
2024-03-26T00:42:36.704Z,990.64
2024-03-26T00:43:36.706Z,990.64
2024-03-26T00:44:36.697Z,990.63
2024-03-26T00:45:36.693Z,990.63
2024-03-26T00:46:36.703Z,990.62
2024-03-26T00:47:36.669Z,990.62
2024-03-26T00:48:36.636Z,990.63
2024-03-26T00:49:36.636Z,990.60
2024-03-26T00:50:36.632Z,990.58
2024-03-26T00:51:36.652Z,990.57
2024-03-26T00:52:36.586Z,990.56
2024-03-26T00:53:36.677Z,990.56
2024-03-26T00:54:36.606Z,990.57
2024-03-26T00:55:36.570Z,990.57
2024-03-26T00:56:36.589Z,990.56
2024-03-26T00:57:36.600Z,990.54
2024-03-26T00:58:36.554Z,990.53
2024-03-26T00:59:36.555Z,990.52
2024-03-26T01:00:36.542Z,990.52
2024-03-26T01:01:36.531Z,990.53
2024-03-26T01:02:36.658Z,990.51
2024-03-26T01:03:36.504Z,990.48
2024-03-26T01:04:36.493Z,990.47
2024-03-26T01:05:36.500Z,990.45
2024-03-26T01:06:36.492Z,990.43
2024-03-26T01:07:36.457Z,990.42
2024-03-26T01:08:36.483Z,990.41
2024-03-26T01:09:36.480Z,990.43
2024-03-26T01:10:36.414Z,990.44
2024-03-26T01:11:36.419Z,990.44
2024-03-26T01:12:36.397Z,990.44
2024-03-26T01:13:36.419Z,990.46
2024-03-26T01:14:36.372Z,990.45
2024-03-26T01:15:36.395Z,990.49
2024-03-26T01:16:36.362Z,990.50
2024-03-26T01:17:36.365Z,990.48
2024-03-26T01:18:36.363Z,990.46
2024-03-26T01:30:00.054Z,990.37
2024-03-26T01:31:02.108Z,990.36
2024-03-26T01:32:11.307Z,990.34
2024-03-26T01:33:01.067Z,990.34
2024-03-26T01:34:01.046Z,990.33
2024-03-26T01:35:01.994Z,990.31
2024-03-26T01:36:01.042Z,990.32
2024-03-26T01:37:01.054Z,990.34
2024-03-26T01:38:01.024Z,990.32
2024-03-26T01:39:01.050Z,990.36
2024-03-26T01:40:00.935Z,990.36
2024-03-26T01:41:01.031Z,990.35
2024-03-26T01:42:00.919Z,990.35
2024-03-26T01:43:00.946Z,990.32
2024-03-26T01:44:01.019Z,990.32
2024-03-26T01:45:00.915Z,990.30
2024-03-26T01:46:00.943Z,990.32
2024-03-26T01:47:00.919Z,990.31
2024-03-26T01:48:00.871Z,990.32
2024-03-26T01:49:00.851Z,990.31
2024-03-26T01:50:00.849Z,990.30
2024-03-26T01:51:00.839Z,990.27
2024-03-26T01:52:00.847Z,990.26
2024-03-26T01:53:00.812Z,990.23
2024-03-26T01:54:00.871Z,990.20
2024-03-26T01:55:00.788Z,990.17
2024-03-26T01:56:00.786Z,990.16
2024-03-26T01:57:00.772Z,990.14
2024-03-26T01:58:00.809Z,990.12
2024-03-26T01:59:00.779Z,990.12
2024-03-26T02:00:00.780Z,990.11
2024-03-26T02:01:00.757Z,990.11
2024-03-26T02:02:00.730Z,990.11
2024-03-26T02:03:00.707Z,990.11
2024-03-26T02:04:00.747Z,990.10
2024-03-26T02:05:00.721Z,990.09
2024-03-26T02:06:00.685Z,990.08
2024-03-26T02:07:00.731Z,990.07
2024-03-26T02:08:00.673Z,990.08
2024-03-26T02:09:00.727Z,990.09
2024-03-26T02:10:00.684Z,990.09
2024-03-26T02:11:00.663Z,990.09
2024-03-26T02:12:00.647Z,990.07
2024-03-26T02:13:00.666Z,990.06
2024-03-26T02:14:00.644Z,990.05
2024-03-26T02:15:00.704Z,990.04
2024-03-26T02:16:00.622Z,990.02
2024-03-26T02:17:00.588Z,990.02
2024-03-26T02:18:00.622Z,989.99
2024-03-26T02:19:00.567Z,989.99
2024-03-26T02:20:00.564Z,990.00
2024-03-26T02:21:00.628Z,990.00
2024-03-26T02:22:00.527Z,990.00
2024-03-26T02:23:00.502Z,989.98
2024-03-26T02:24:00.529Z,989.96
2024-03-26T02:25:00.514Z,989.96
2024-03-26T02:26:00.538Z,989.97
2024-03-26T02:27:00.496Z,989.96
2024-03-26T02:28:00.508Z,989.95
2024-03-26T02:29:00.542Z,989.94
2024-03-26T02:30:00.450Z,989.93
2024-03-26T02:31:00.479Z,989.91
2024-03-26T02:32:00.476Z,989.91
2024-03-26T02:33:00.451Z,989.91
2024-03-26T02:34:00.429Z,989.91
2024-03-26T02:35:00.421Z,989.90
2024-03-26T02:36:00.461Z,989.90
2024-03-26T02:37:00.411Z,989.89
2024-03-26T02:38:00.418Z,989.88
2024-03-26T02:39:00.420Z,989.88
2024-03-26T02:40:00.431Z,989.86
2024-03-26T02:41:00.384Z,989.86
2024-03-26T02:42:00.365Z,989.86
2024-03-26T02:43:00.365Z,989.88
2024-03-26T02:44:00.303Z,989.87
2024-03-26T02:45:00.317Z,989.86
2024-03-26T02:46:00.300Z,989.84
2024-03-26T02:47:00.310Z,989.84
2024-03-26T02:48:00.269Z,989.84
2024-03-26T02:49:00.273Z,989.83
2024-03-26T02:50:00.260Z,989.83
2024-03-26T02:51:00.262Z,989.80
2024-03-26T02:52:00.238Z,989.78
2024-03-26T02:53:00.244Z,989.75
2024-03-26T02:54:00.206Z,989.74
2024-03-26T02:55:00.218Z,989.73
2024-03-26T02:56:00.196Z,989.74
2024-03-26T02:57:00.191Z,989.72
2024-03-26T02:58:00.188Z,989.70
2024-03-26T02:59:00.175Z,989.69
2024-03-26T03:00:00.222Z,989.68
2024-03-26T03:01:00.169Z,989.68
2024-03-26T03:02:00.135Z,989.67
2024-03-26T03:03:00.120Z,989.65
2024-03-26T03:04:00.147Z,989.63
2024-03-26T03:05:00.158Z,989.62
2024-03-26T03:06:00.153Z,989.60
2024-03-26T03:07:00.122Z,989.59
2024-03-26T03:08:00.081Z,989.58
2024-03-26T03:09:00.157Z,989.58
2024-03-26T03:10:00.045Z,989.56
2024-03-26T03:11:00.098Z,989.55
2024-03-26T03:12:00.063Z,989.53
2024-03-26T03:13:00.037Z,989.53
2024-03-26T03:14:00.040Z,989.51
2024-03-26T03:15:00.021Z,989.49
2024-03-26T03:16:00.003Z,989.48
2024-03-26T03:17:00.029Z,989.45
2024-03-26T03:18:00.079Z,989.44
2024-03-26T03:18:59.960Z,989.41
2024-03-26T03:19:59.947Z,989.41
2024-03-26T03:20:59.959Z,989.40
2024-03-26T03:22:00.023Z,989.38
2024-03-26T03:22:59.921Z,989.40
2024-03-26T03:23:59.976Z,989.37
2024-03-26T03:24:59.908Z,989.34
2024-03-26T03:25:59.911Z,989.32
2024-03-26T03:26:59.896Z,989.29
2024-03-26T03:27:59.907Z,989.29
2024-03-26T03:28:59.893Z,989.29
2024-03-26T03:29:59.864Z,989.25
2024-03-26T03:30:59.908Z,989.21
2024-03-26T03:31:59.878Z,989.19
2024-03-26T03:32:59.864Z,989.18
2024-03-26T03:33:59.842Z,989.15
2024-03-26T03:34:59.822Z,989.15
2024-03-26T03:35:59.806Z,989.16
2024-03-26T03:36:59.792Z,989.16
2024-03-26T03:37:59.869Z,989.17
2024-03-26T03:38:59.794Z,989.15
2024-03-26T03:39:59.776Z,989.13
2024-03-26T03:40:59.754Z,989.09
2024-03-26T03:41:59.742Z,989.09
2024-03-26T03:42:59.775Z,989.07
2024-03-26T03:43:59.738Z,989.05
2024-03-26T03:44:59.730Z,989.03
2024-03-26T03:45:59.770Z,989.03
2024-03-26T03:46:59.701Z,989.01
2024-03-26T03:47:59.680Z,989.01
2024-03-26T03:48:59.691Z,988.99
2024-03-26T03:49:59.663Z,988.97
2024-03-26T03:50:59.707Z,988.95
2024-03-26T03:51:59.646Z,988.96
2024-03-26T03:52:59.638Z,988.96
2024-03-26T03:53:59.660Z,988.93
2024-03-26T03:54:59.723Z,988.92
2024-03-26T03:55:59.639Z,988.90
2024-03-26T03:56:59.697Z,988.91
2024-03-26T03:57:59.624Z,988.91
2024-03-26T03:58:59.600Z,988.90
2024-03-26T03:59:59.575Z,988.91
2024-03-26T04:00:59.594Z,988.90
2024-03-26T04:01:59.590Z,988.88
2024-03-26T04:02:59.582Z,988.88
2024-03-26T04:03:59.553Z,988.85
2024-03-26T04:04:59.533Z,988.85
2024-03-26T04:05:59.515Z,988.85
2024-03-26T04:06:59.512Z,988.85
2024-03-26T04:07:59.524Z,988.84
2024-03-26T04:08:59.485Z,988.83
2024-03-26T04:09:59.482Z,988.84
2024-03-26T04:10:59.482Z,988.82
2024-03-26T04:11:59.479Z,988.81
2024-03-26T04:12:59.462Z,988.81
2024-03-26T04:13:59.459Z,988.80
2024-03-26T04:14:59.468Z,988.83
2024-03-26T04:15:59.474Z,988.84
2024-03-26T04:16:59.439Z,988.88
2024-03-26T04:17:59.430Z,988.87
2024-03-26T04:18:59.434Z,988.87
2024-03-26T04:19:59.391Z,988.86
2024-03-26T04:20:59.359Z,988.86
2024-03-26T04:21:59.342Z,988.84
2024-03-26T04:22:59.436Z,988.82
2024-03-26T04:23:59.407Z,988.83
2024-03-26T04:24:59.344Z,988.82
2024-03-26T04:25:59.320Z,988.82
2024-03-26T04:26:59.314Z,988.82
2024-03-26T04:27:59.283Z,988.81
2024-03-26T04:28:59.335Z,988.82
2024-03-26T04:29:59.350Z,988.81
2024-03-26T04:30:59.271Z,988.78
2024-03-26T04:31:59.243Z,988.77
2024-03-26T04:32:59.255Z,988.74
2024-03-26T04:33:59.270Z,988.70
2024-03-26T04:34:59.220Z,988.68
2024-03-26T04:35:59.234Z,988.66
2024-03-26T04:36:59.201Z,988.62
2024-03-26T04:37:59.205Z,988.61
2024-03-26T04:38:59.206Z,988.61
2024-03-26T04:39:59.187Z,988.60
2024-03-26T04:40:59.188Z,988.57
2024-03-26T04:41:59.185Z,988.55
2024-03-26T04:42:59.204Z,988.53
2024-03-26T04:43:59.129Z,988.51
2024-03-26T04:44:59.110Z,988.49
2024-03-26T04:45:59.113Z,988.49
2024-03-26T04:46:59.135Z,988.48
2024-03-26T04:47:59.116Z,988.47
2024-03-26T04:48:59.085Z,988.48
2024-03-26T04:49:59.076Z,988.48
2024-03-26T04:50:59.073Z,988.49
2024-03-26T04:51:59.062Z,988.48
2024-03-26T04:52:59.071Z,988.46
2024-03-26T04:53:59.024Z,988.46
2024-03-26T04:54:59.016Z,988.44
2024-03-26T04:55:59.010Z,988.45
2024-03-26T04:56:59.039Z,988.45
2024-03-26T04:57:59.032Z,988.45
2024-03-26T04:58:59.000Z,988.43
2024-03-26T04:59:59.000Z,988.42
2024-03-26T05:00:58.967Z,988.40
2024-03-26T05:01:58.952Z,988.41
2024-03-26T05:02:58.958Z,988.39
2024-03-26T05:03:58.981Z,988.39
2024-03-26T05:04:58.936Z,988.38
2024-03-26T05:05:58.927Z,988.37
2024-03-26T05:06:58.932Z,988.36
2024-03-26T05:07:58.892Z,988.35
2024-03-26T05:08:58.900Z,988.34
2024-03-26T05:09:58.900Z,988.33
2024-03-26T05:10:58.964Z,988.31
2024-03-26T05:11:58.867Z,988.30
2024-03-26T05:12:58.875Z,988.30
2024-03-26T05:13:58.841Z,988.28
2024-03-26T05:14:58.839Z,988.26
2024-03-26T05:15:58.807Z,988.24
2024-03-26T05:16:58.799Z,988.18
2024-03-26T05:17:59.051Z,988.18
2024-03-26T05:18:58.856Z,988.17
2024-03-26T05:19:58.822Z,988.16
2024-03-26T05:20:58.773Z,988.15
2024-03-26T05:21:58.767Z,988.14
2024-03-26T05:22:58.754Z,988.11
2024-03-26T05:23:58.737Z,988.12
2024-03-26T05:24:58.744Z,988.12
2024-03-26T05:25:58.753Z,988.13
2024-03-26T05:26:58.716Z,988.13
2024-03-26T05:27:58.694Z,988.13
2024-03-26T05:28:58.694Z,988.11
2024-03-26T05:29:58.685Z,988.11
2024-03-26T05:30:58.700Z,988.09
2024-03-26T05:31:58.670Z,988.07
2024-03-26T05:32:58.658Z,988.08
2024-03-26T05:33:58.640Z,988.07
2024-03-26T05:34:58.634Z,988.05
2024-03-26T05:35:58.620Z,988.06
2024-03-26T05:36:58.629Z,988.05
2024-03-26T05:37:58.593Z,988.04
2024-03-26T05:38:58.593Z,988.04
2024-03-26T05:39:58.589Z,988.03
2024-03-26T05:40:58.585Z,987.99
2024-03-26T05:41:58.566Z,988.03
2024-03-26T05:42:58.573Z,988.04
2024-03-26T05:43:58.539Z,988.04
2024-03-26T05:44:58.565Z,988.07
2024-03-26T05:45:58.507Z,988.07
2024-03-26T05:46:58.522Z,988.03
2024-03-26T05:47:58.517Z,988.02
2024-03-26T05:48:58.511Z,988.00
2024-03-26T05:49:58.489Z,987.99
2024-03-26T05:50:58.469Z,987.97
2024-03-26T05:51:58.473Z,987.97
2024-03-26T05:52:58.466Z,987.97
2024-03-26T05:53:58.459Z,987.96
2024-03-26T05:54:58.446Z,988.00
2024-03-26T05:55:58.440Z,987.98
2024-03-26T05:56:58.419Z,987.97
2024-03-26T05:57:58.412Z,987.96
2024-03-26T05:58:58.393Z,987.97
2024-03-26T05:59:58.405Z,987.96
2024-03-26T06:00:58.376Z,987.99
2024-03-26T06:01:58.375Z,987.93
2024-03-26T06:02:58.363Z,987.95
2024-03-26T06:03:59.795Z,987.93
2024-03-26T06:04:58.332Z,987.93
2024-03-26T06:05:58.468Z,987.94
2024-03-26T06:06:58.326Z,987.92
2024-03-26T06:07:58.351Z,987.91
2024-03-26T06:08:58.322Z,987.94
2024-03-26T06:09:58.294Z,987.91
2024-03-26T06:10:58.317Z,987.92
2024-03-26T06:11:58.285Z,987.94
2024-03-26T06:12:58.354Z,987.91
2024-03-26T06:13:58.264Z,987.90
2024-03-26T06:14:58.239Z,987.89
2024-03-26T06:15:58.266Z,987.93
2024-03-26T06:16:58.222Z,987.87
2024-03-26T06:17:58.225Z,987.87
2024-03-26T06:18:58.208Z,987.92
2024-03-26T06:19:58.196Z,987.85
2024-03-26T06:20:58.185Z,987.90
2024-03-26T06:21:58.257Z,987.87
2024-03-26T06:22:58.218Z,987.84
2024-03-26T06:23:58.142Z,987.85
2024-03-26T06:24:58.134Z,987.88
2024-03-26T06:25:58.152Z,987.83
2024-03-26T06:26:58.258Z,987.86
2024-03-26T06:27:58.122Z,987.86
2024-03-26T06:28:58.114Z,987.86
2024-03-26T06:29:58.102Z,987.87
2024-03-26T06:30:58.110Z,987.86
2024-03-26T06:31:58.078Z,987.87
2024-03-26T06:32:58.098Z,987.86
2024-03-26T06:33:58.066Z,987.84
2024-03-26T06:34:58.063Z,987.82
2024-03-26T06:35:58.050Z,987.85
2024-03-26T06:36:58.036Z,987.83
2024-03-26T06:37:58.059Z,987.80
2024-03-26T06:38:58.044Z,987.80
2024-03-26T06:39:58.004Z,987.77
2024-03-26T06:40:58.222Z,987.77
2024-03-26T06:41:57.970Z,987.81
2024-03-26T06:42:58.030Z,987.84
2024-03-26T06:43:58.012Z,987.82
2024-03-26T06:44:57.961Z,987.83
2024-03-26T06:45:58.046Z,987.83
2024-03-26T06:46:57.930Z,987.85
2024-03-26T06:47:57.995Z,987.82
2024-03-26T06:48:57.915Z,987.88
2024-03-26T06:49:57.922Z,987.84
2024-03-26T06:50:57.897Z,987.83
2024-03-26T06:51:57.910Z,987.83
2024-03-26T06:52:57.888Z,987.81
2024-03-26T06:53:57.888Z,987.82
2024-03-26T06:54:57.882Z,987.77
2024-03-26T06:55:57.839Z,987.76
2024-03-26T06:56:57.841Z,987.75
2024-03-26T06:57:57.814Z,987.77
2024-03-26T06:58:57.808Z,987.70
2024-03-26T06:59:57.816Z,987.71
2024-03-26T07:00:57.822Z,987.66
2024-03-26T07:01:57.776Z,987.66
2024-03-26T07:02:57.821Z,987.69
2024-03-26T07:03:57.760Z,987.67
2024-03-26T07:04:57.753Z,987.68
2024-03-26T07:05:57.844Z,987.65
2024-03-26T07:06:57.771Z,987.68
2024-03-26T07:07:57.720Z,987.70
2024-03-26T07:08:57.776Z,987.62
2024-03-26T07:09:57.719Z,987.62
2024-03-26T07:10:57.756Z,987.61
2024-03-26T07:11:57.718Z,987.58
2024-03-26T07:12:59.058Z,987.55
2024-03-26T07:13:57.673Z,987.52
2024-03-26T07:14:57.660Z,987.54
2024-03-26T07:15:57.659Z,987.53
2024-03-26T07:16:57.675Z,987.55
2024-03-26T07:17:57.637Z,987.53
2024-03-26T07:18:57.628Z,987.51
2024-03-26T07:19:57.634Z,987.50
2024-03-26T07:20:57.661Z,987.49
2024-03-26T07:21:57.580Z,987.50
2024-03-26T07:22:57.613Z,987.60
2024-03-26T07:23:57.625Z,987.49
2024-03-26T07:24:57.574Z,987.51
2024-03-26T07:25:57.536Z,987.49
2024-03-26T07:26:57.585Z,987.50
2024-03-26T07:27:57.532Z,987.44
2024-03-26T07:28:57.537Z,987.43
2024-03-26T07:29:57.534Z,987.41
2024-03-26T07:30:57.503Z,987.36
2024-03-26T07:31:57.487Z,987.34
2024-03-26T07:32:57.494Z,987.34
2024-03-26T07:33:57.490Z,987.31
2024-03-26T07:34:57.463Z,987.31
2024-03-26T07:35:57.488Z,987.30
2024-03-26T07:36:57.446Z,987.31
2024-03-26T07:37:57.439Z,987.31
2024-03-26T07:38:57.478Z,987.28
2024-03-26T07:39:57.439Z,987.29
2024-03-26T07:40:57.408Z,987.26
2024-03-26T07:41:57.432Z,987.29
2024-03-26T07:42:59.703Z,987.22
2024-03-26T07:43:57.430Z,987.21
2024-03-26T07:44:57.421Z,987.20
2024-03-26T07:45:57.347Z,987.22
2024-03-26T07:46:57.355Z,987.19
2024-03-26T07:47:57.382Z,987.19
2024-03-26T07:48:57.426Z,987.15
2024-03-26T07:49:57.383Z,987.15
2024-03-26T07:50:57.358Z,987.12
2024-03-26T07:51:57.590Z,987.06
2024-03-26T07:52:57.349Z,987.05
2024-03-26T07:53:57.319Z,987.06
2024-03-26T07:54:57.379Z,987.04
2024-03-26T07:55:57.279Z,987.06
2024-03-26T07:56:57.283Z,987.05
2024-03-26T07:57:57.265Z,987.07
2024-03-26T07:58:57.256Z,987.08
2024-03-26T07:59:57.245Z,987.11
2024-03-26T08:00:57.248Z,987.04
2024-03-26T08:01:57.210Z,987.08
2024-03-26T08:02:57.223Z,987.05
2024-03-26T08:03:57.339Z,987.06
2024-03-26T08:04:57.178Z,987.08
2024-03-26T08:05:57.236Z,987.07
2024-03-26T08:06:57.169Z,987.07
2024-03-26T08:07:57.162Z,987.04
2024-03-26T08:08:57.172Z,987.05
2024-03-26T08:09:57.147Z,987.01
2024-03-26T08:10:57.216Z,987.01
2024-03-26T08:11:57.122Z,987.00
2024-03-26T08:12:57.112Z,986.98
2024-03-26T08:13:57.120Z,987.00
2024-03-26T08:14:57.183Z,986.93
2024-03-26T08:15:57.097Z,986.98
2024-03-26T08:16:57.103Z,986.93
2024-03-26T08:17:58.204Z,986.94
2024-03-26T08:18:57.079Z,986.86
2024-03-26T08:19:57.038Z,986.86
2024-03-26T08:20:57.061Z,986.82
2024-03-26T08:21:57.055Z,986.90
2024-03-26T08:22:57.092Z,986.78
2024-03-26T08:23:57.036Z,986.81
2024-03-26T08:24:58.725Z,986.73
2024-03-26T08:25:57.004Z,986.71
2024-03-26T08:26:57.044Z,986.71
2024-03-26T08:27:56.992Z,986.69
2024-03-26T08:28:56.985Z,986.73
2024-03-26T08:29:57.065Z,986.68
2024-03-26T08:30:56.942Z,986.69
2024-03-26T08:31:56.968Z,986.64
2024-03-26T08:32:56.952Z,986.60
2024-03-26T08:33:56.988Z,986.61
2024-03-26T08:34:56.938Z,986.64
2024-03-26T08:35:56.928Z,986.63
2024-03-26T08:36:56.911Z,986.57
2024-03-26T08:37:56.885Z,986.65
2024-03-26T08:38:56.974Z,986.59
2024-03-26T08:39:56.905Z,986.55
2024-03-26T08:40:56.862Z,986.55
2024-03-26T08:41:56.872Z,986.52
2024-03-26T08:42:56.834Z,986.54
2024-03-26T08:43:56.820Z,986.59
2024-03-26T08:44:56.860Z,986.55
2024-03-26T08:45:56.835Z,986.47
2024-03-26T08:46:56.788Z,986.45
2024-03-26T08:47:56.814Z,986.45
2024-03-26T08:48:56.773Z,986.42
2024-03-26T08:49:56.783Z,986.40
2024-03-26T08:50:56.831Z,986.39
2024-03-26T08:51:56.814Z,986.38
2024-03-26T08:52:56.755Z,986.37
2024-03-26T08:53:56.816Z,986.37
2024-03-26T08:54:56.739Z,986.30
2024-03-26T08:56:00.319Z,986.29
2024-03-26T08:56:56.744Z,986.28
2024-03-26T08:57:56.723Z,986.26
2024-03-26T08:58:56.700Z,986.23
2024-03-26T08:59:56.745Z,986.25
2024-03-26T09:00:56.682Z,986.25
2024-03-26T09:01:56.698Z,986.29
2024-03-26T09:02:56.694Z,986.16
2024-03-26T09:03:56.655Z,986.19
2024-03-26T09:04:56.633Z,986.19
2024-03-26T09:05:56.658Z,986.22
2024-03-26T09:06:56.631Z,986.25
2024-03-26T09:07:56.637Z,986.20
2024-03-26T09:08:56.622Z,986.21
2024-03-26T09:09:56.589Z,986.21
2024-03-26T09:10:56.578Z,986.21
2024-03-26T09:11:56.607Z,986.22
2024-03-26T09:12:56.573Z,986.21
2024-03-26T09:13:56.576Z,986.19
2024-03-26T09:14:56.638Z,986.19
2024-03-26T09:15:56.539Z,986.23
2024-03-26T09:16:56.571Z,986.24
2024-03-26T09:17:56.516Z,986.33
2024-03-26T09:19:01.061Z,986.31
2024-03-26T09:19:56.525Z,986.28
2024-03-26T09:20:56.505Z,986.29
2024-03-26T09:21:56.501Z,986.24
2024-03-26T09:22:56.506Z,986.24
2024-03-26T09:23:56.510Z,986.28
2024-03-26T09:24:56.455Z,986.21
2024-03-26T09:25:56.472Z,986.23
2024-03-26T09:26:56.430Z,986.16
2024-03-26T09:27:56.430Z,986.15
2024-03-26T09:28:56.418Z,986.15
2024-03-26T09:29:56.503Z,986.17
2024-03-26T09:30:56.386Z,986.19
2024-03-26T09:31:56.383Z,986.11
2024-03-26T09:32:56.377Z,986.13
2024-03-26T09:33:56.364Z,986.07
2024-03-26T09:34:56.351Z,986.12
2024-03-26T09:35:56.372Z,986.10
2024-03-26T09:36:56.349Z,986.05
2024-03-26T09:37:56.342Z,986.03
2024-03-26T09:39:06.312Z,986.02
2024-03-26T09:39:56.304Z,986.05
2024-03-26T09:40:56.331Z,986.00
2024-03-26T09:41:56.303Z,986.00
2024-03-26T09:42:56.263Z,985.96
2024-03-26T09:43:56.260Z,985.97
2024-03-26T09:45:05.217Z,986.00
2024-03-26T09:45:56.271Z,985.93
2024-03-26T09:46:56.277Z,985.86
2024-03-26T09:47:56.258Z,985.93
2024-03-26T09:48:56.200Z,985.91
2024-03-26T09:49:56.206Z,985.86
2024-03-26T09:50:56.217Z,985.95
2024-03-26T09:51:56.189Z,985.83
2024-03-26T09:52:56.245Z,985.77
2024-03-26T09:53:56.193Z,985.75
2024-03-26T09:54:56.143Z,985.81
2024-03-26T09:55:56.157Z,985.73
2024-03-26T09:56:56.154Z,985.66
2024-03-26T09:57:56.158Z,985.66
2024-03-26T09:58:56.110Z,985.62
2024-03-26T09:59:56.227Z,985.57
2024-03-26T10:00:56.085Z,985.57
2024-03-26T10:01:56.124Z,985.53
2024-03-26T10:02:56.153Z,985.59
2024-03-26T10:03:56.107Z,985.57
2024-03-26T10:04:56.060Z,985.50
2024-03-26T10:05:56.066Z,985.50
2024-03-26T10:06:56.020Z,985.44
2024-03-26T10:07:56.054Z,985.36
2024-03-26T10:08:56.055Z,985.40
2024-03-26T10:09:56.010Z,985.35
2024-03-26T10:10:56.007Z,985.31
2024-03-26T10:11:55.993Z,985.33
2024-03-26T10:12:55.969Z,985.27
2024-03-26T10:13:55.969Z,985.24
2024-03-26T10:14:55.985Z,985.24
2024-03-26T10:15:55.969Z,985.25
2024-03-26T10:16:55.943Z,985.20
2024-03-26T10:17:55.925Z,985.17
2024-03-26T10:18:55.914Z,985.14
2024-03-26T10:19:55.970Z,985.11
2024-03-26T10:20:55.901Z,985.11
2024-03-26T10:21:55.894Z,985.07
2024-03-26T10:22:55.878Z,985.12
2024-03-26T10:23:55.893Z,985.10
2024-03-26T10:24:55.870Z,985.21
2024-03-26T10:25:55.887Z,985.02
2024-03-26T10:26:55.853Z,985.00
2024-03-26T10:27:55.836Z,985.02
2024-03-26T10:28:55.819Z,984.98
2024-03-26T10:29:55.835Z,984.98
2024-03-26T10:30:55.808Z,984.95
2024-03-26T10:31:55.841Z,984.94
2024-03-26T10:32:55.773Z,984.92
2024-03-26T10:33:55.785Z,984.86
2024-03-26T10:34:55.764Z,984.87
2024-03-26T10:35:55.775Z,984.81
2024-03-26T10:36:55.817Z,984.74
2024-03-26T10:37:59.006Z,984.77
2024-03-26T10:39:02.649Z,984.79
2024-03-26T10:39:55.721Z,984.78
2024-03-26T10:40:58.440Z,984.76
2024-03-26T10:41:55.713Z,984.78
2024-03-26T10:42:55.711Z,984.80
2024-03-26T10:43:55.675Z,984.75
2024-03-26T10:44:55.696Z,984.80
2024-03-26T10:46:03.392Z,984.75
2024-03-26T10:46:55.668Z,984.79
2024-03-26T10:47:55.680Z,984.76
2024-03-26T10:49:01.293Z,984.75
2024-03-26T10:49:55.669Z,984.75
2024-03-26T10:50:55.607Z,984.74
2024-03-26T10:51:55.669Z,984.72
2024-03-26T10:52:55.605Z,984.74
2024-03-26T10:53:55.614Z,984.69
2024-03-26T10:54:55.635Z,984.67
2024-03-26T10:55:55.576Z,984.67
2024-03-26T10:56:55.591Z,984.76
2024-03-26T10:57:55.611Z,984.70
2024-03-26T10:58:55.535Z,984.70
2024-03-26T10:59:55.606Z,984.69
2024-03-26T11:00:55.529Z,984.70
2024-03-26T11:01:55.509Z,984.72
2024-03-26T11:02:55.507Z,984.67
2024-03-26T11:03:55.530Z,984.65
2024-03-26T11:04:55.545Z,984.64
2024-03-26T11:05:55.506Z,984.60
2024-03-26T11:06:55.455Z,984.57
2024-03-26T11:07:55.448Z,984.60
2024-03-26T11:08:55.435Z,984.57
2024-03-26T11:09:55.434Z,984.56
2024-03-26T11:10:56.085Z,984.55
2024-03-26T11:11:55.488Z,984.52
2024-03-26T11:12:55.398Z,984.53
2024-03-26T11:13:55.394Z,984.49
2024-03-26T11:14:55.391Z,984.48
2024-03-26T11:15:55.438Z,984.45
2024-03-26T11:16:55.384Z,984.46
2024-03-26T11:17:55.383Z,984.43
2024-03-26T11:18:55.340Z,984.50
2024-03-26T11:19:55.348Z,984.43
2024-03-26T11:20:55.352Z,984.45
2024-03-26T11:21:55.398Z,984.40
2024-03-26T11:22:55.321Z,984.40
2024-03-26T11:23:55.300Z,984.45
2024-03-26T11:24:55.288Z,984.42
2024-03-26T11:25:55.318Z,984.46
2024-03-26T11:26:55.286Z,984.47
2024-03-26T11:27:55.265Z,984.47
2024-03-26T11:28:55.251Z,984.44
2024-03-26T11:29:55.263Z,984.39
2024-03-26T11:30:55.228Z,984.39
2024-03-26T11:31:55.256Z,984.38
2024-03-26T11:32:55.220Z,984.39
2024-03-26T11:33:55.238Z,984.39
2024-03-26T11:34:55.273Z,984.41
2024-03-26T11:35:55.195Z,984.39
2024-03-26T11:36:55.190Z,984.35
2024-03-26T11:37:55.193Z,984.34
2024-03-26T11:38:55.186Z,984.35
2024-03-26T11:39:55.165Z,984.29
2024-03-26T11:40:55.138Z,984.28
2024-03-26T11:41:55.133Z,984.33
2024-03-26T11:42:55.147Z,984.26
2024-03-26T11:43:55.122Z,984.25
2024-03-26T11:44:55.101Z,984.26
2024-03-26T11:45:55.090Z,984.23
2024-03-26T11:46:55.115Z,984.18
2024-03-26T11:47:55.072Z,984.17
2024-03-26T11:48:55.087Z,984.14
2024-03-26T11:49:55.058Z,984.12
2024-03-26T11:50:55.047Z,984.17
2024-03-26T11:51:55.043Z,984.20
2024-03-26T11:52:55.031Z,984.20
2024-03-26T11:53:55.025Z,984.10
2024-03-26T11:54:55.039Z,984.07
2024-03-26T11:55:55.006Z,984.05
2024-03-26T11:56:54.992Z,984.03
2024-03-26T11:57:54.982Z,984.00
2024-03-26T11:58:54.976Z,984.00
2024-03-26T11:59:54.985Z,983.95
2024-03-26T12:00:54.948Z,983.92
2024-03-26T12:01:54.949Z,983.90
2024-03-26T12:02:54.974Z,983.91
2024-03-26T12:03:54.926Z,983.94
2024-03-26T12:04:54.951Z,983.92
2024-03-26T12:05:54.947Z,984.03
2024-03-26T12:06:54.927Z,983.95
2024-03-26T12:07:54.898Z,983.97
2024-03-26T12:08:54.874Z,983.94
2024-03-26T12:09:54.882Z,983.96
2024-03-26T12:10:54.996Z,983.94
2024-03-26T12:11:54.860Z,983.96
2024-03-26T12:12:54.866Z,983.91
2024-03-26T12:13:54.843Z,983.88
2024-03-26T12:14:54.827Z,983.86
2024-03-26T12:15:54.891Z,983.83
2024-03-26T12:16:54.802Z,983.79
2024-03-26T12:17:54.799Z,983.83
2024-03-26T12:18:54.783Z,983.79
2024-03-26T12:19:54.775Z,983.77
2024-03-26T12:20:54.766Z,983.75
2024-03-26T12:21:54.791Z,983.80
2024-03-26T12:22:54.744Z,983.77
2024-03-26T12:23:54.756Z,983.79
2024-03-26T12:24:54.720Z,983.73
2024-03-26T12:25:54.746Z,983.70
2024-03-26T12:26:54.730Z,983.70
2024-03-26T12:27:54.718Z,983.70
2024-03-26T12:28:54.693Z,983.67
2024-03-26T12:29:54.673Z,983.73
2024-03-26T12:30:54.690Z,983.64
2024-03-26T12:31:54.687Z,983.58
2024-03-26T12:32:54.642Z,983.56
2024-03-26T12:33:54.666Z,983.63
2024-03-26T12:34:54.632Z,983.63
2024-03-26T12:35:54.624Z,983.54
2024-03-26T12:36:54.643Z,983.56
2024-03-26T12:37:54.626Z,983.55
2024-03-26T12:38:55.408Z,983.54